sensor_id;sensor_type;location;lat;lon;timestamp;pressure;altitude;pressure_sealevel;temperature;humidity
85758;BME280;76202;52.626;4.746;2024-03-23T00:56:16;100898.91;;;15.58;72.23
85758;BME280;76202;52.626;4.746;2024-03-23T00:58:42;100905.34;;;15.57;72.36
85758;BME280;76202;52.626;4.746;2024-03-23T01:01:07;100898.91;;;15.58;72.03
85758;BME280;76202;52.626;4.746;2024-03-23T01:03:32;100897.03;;;15.59;71.89
85758;BME280;76202;52.626;4.746;2024-03-23T01:06:02;100900.56;;;15.59;71.99
85758;BME280;76202;52.626;4.746;2024-03-23T01:08:28;100891.88;;;15.57;72.25
85758;BME280;76202;52.626;4.746;2024-03-23T01:11:03;100894.75;;;15.56;72.17
85758;BME280;76202;52.626;4.746;2024-03-23T01:13:29;100892.06;;;15.56;71.46
85758;BME280;76202;52.626;4.746;2024-03-23T01:15:56;100890.44;;;15.55;72.33
85758;BME280;76202;52.626;4.746;2024-03-23T01:18:22;100887.75;;;15.55;71.92
85758;BME280;76202;52.626;4.746;2024-03-23T01:20:48;100883.78;;;15.57;72.04
85758;BME280;76202;52.626;4.746;2024-03-23T01:23:14;100883.97;;;15.56;71.30
85758;BME280;76202;52.626;4.746;2024-03-23T01:25:40;100880.69;;;15.54;71.76
85758;BME280;76202;52.626;4.746;2024-03-23T01:28:05;100869.91;;;15.54;72.18
85758;BME280;76202;52.626;4.746;2024-03-23T01:30:32;100869.91;;;15.54;71.74
85758;BME280;76202;52.626;4.746;2024-03-23T01:32:57;100871.75;;;15.53;72.04
85758;BME280;76202;52.626;4.746;2024-03-23T01:35:22;100860.78;;;15.55;71.48
85758;BME280;76202;52.626;4.746;2024-03-23T01:37:48;100862.66;;;15.54;72.19
85758;BME280;76202;52.626;4.746;2024-03-23T01:40:14;100865.34;;;15.54;71.61
85758;BME280;76202;52.626;4.746;2024-03-23T01:42:41;100856.41;;;15.54;71.64
85758;BME280;76202;52.626;4.746;2024-03-23T01:45:07;100867.22;;;15.54;71.29
85758;BME280;76202;52.626;4.746;2024-03-23T01:47:33;100864.75;;;15.52;72.13
85758;BME280;76202;52.626;4.746;2024-03-23T01:49:59;100857.91;;;15.50;72.04
85758;BME280;76202;52.626;4.746;2024-03-23T01:52:25;100860.00;;;15.48;72.35
85758;BME280;76202;52.626;4.746;2024-03-23T01:54:52;100847.34;;;15.48;71.68
85758;BME280;76202;52.626;4.746;2024-03-23T01:57:17;100844.66;;;15.48;71.97
85758;BME280;76202;52.626;4.746;2024-03-23T01:59:43;100849.00;;;15.49;72.11
85758;BME280;76202;52.626;4.746;2024-03-23T02:02:08;100840.69;;;15.51;72.30
85758;BME280;76202;52.626;4.746;2024-03-23T02:04:34;100822.88;;;15.50;72.15
85758;BME280;76202;52.626;4.746;2024-03-23T02:06:59;100829.31;;;15.49;71.93
85758;BME280;76202;52.626;4.746;2024-03-23T02:09:24;100821.41;;;15.47;71.95
85758;BME280;76202;52.626;4.746;2024-03-23T02:11:50;100829.50;;;15.47;71.45
85758;BME280;76202;52.626;4.746;2024-03-23T02:14:15;100830.53;;;15.46;71.88
85758;BME280;76202;52.626;4.746;2024-03-23T02:16:41;100818.94;;;15.46;71.71
85758;BME280;76202;52.626;4.746;2024-03-23T02:19:06;100830.75;;;15.45;72.04
85758;BME280;76202;52.626;4.746;2024-03-23T02:21:32;100813.34;;;15.47;71.34
85758;BME280;76202;52.626;4.746;2024-03-23T02:23:59;100817.69;;;15.48;71.94
85758;BME280;76202;52.626;4.746;2024-03-23T02:26:25;100805.88;;;15.49;71.56
85758;BME280;76202;52.626;4.746;2024-03-23T02:28:50;100804.63;;;15.45;71.83
85758;BME280;76202;52.626;4.746;2024-03-23T02:31:16;100811.47;;;15.48;71.49
85758;BME280;76202;52.626;4.746;2024-03-23T02:33:41;100796.38;;;15.47;71.32
85758;BME280;76202;52.626;4.746;2024-03-23T02:36:07;100802.56;;;15.47;71.25
85758;BME280;76202;52.626;4.746;2024-03-23T02:38:32;100793.25;;;15.43;71.17
85758;BME280;76202;52.626;4.746;2024-03-23T02:41:03;100802.75;;;15.46;71.37
85758;BME280;76202;52.626;4.746;2024-03-23T02:43:28;100798.19;;;15.46;71.01
85758;BME280;76202;52.626;4.746;2024-03-23T02:45:54;100795.50;;;15.46;71.63
85758;BME280;76202;52.626;4.746;2024-03-23T02:48:19;100789.47;;;15.44;71.58
85758;BME280;76202;52.626;4.746;2024-03-23T02:50:44;100784.09;;;15.44;71.79
85758;BME280;76202;52.626;4.746;2024-03-23T02:53:10;100779.97;;;15.42;71.92
85758;BME280;76202;52.626;4.746;2024-03-23T02:55:35;100773.53;;;15.43;71.39
85758;BME280;76202;52.626;4.746;2024-03-23T02:58:01;100776.44;;;15.41;71.38
85758;BME280;76202;52.626;4.746;2024-03-23T03:00:28;100776.25;;;15.43;71.77
85758;BME280;76202;52.626;4.746;2024-03-23T03:02:53;100771.88;;;15.42;71.37
85758;BME280;76202;52.626;4.746;2024-03-23T03:05:18;100770.03;;;15.42;71.69
85758;BME280;76202;52.626;4.746;2024-03-23T03:07:44;100771.88;;;15.42;71.09
85758;BME280;76202;52.626;4.746;2024-03-23T03:10:09;100761.34;;;15.40;71.27
85758;BME280;76202;52.626;4.746;2024-03-23T03:12:37;100762.97;;;15.41;71.47
85758;BME280;76202;52.626;4.746;2024-03-23T03:15:06;100755.72;;;15.42;71.14
85758;BME280;76202;52.626;4.746;2024-03-23T03:17:31;100753.25;;;15.40;71.53
85758;BME280;76202;52.626;4.746;2024-03-23T03:19:56;100753.25;;;15.40;71.55
85758;BME280;76202;52.626;4.746;2024-03-23T03:22:23;100750.75;;;15.39;70.88
85758;BME280;76202;52.626;4.746;2024-03-23T03:24:53;100751.59;;;15.39;71.29
85758;BME280;76202;52.626;4.746;2024-03-23T03:27:18;100748.50;;;15.36;70.73
85758;BME280;76202;52.626;4.746;2024-03-23T03:29:44;100747.88;;;15.40;71.42
85758;BME280;76202;52.626;4.746;2024-03-23T03:32:09;100745.59;;;15.37;70.91
85758;BME280;76202;52.626;4.746;2024-03-23T03:34:35;100742.91;;;15.37;71.00
85758;BME280;76202;52.626;4.746;2024-03-23T03:37:00;100747.47;;;15.37;70.92
85758;BME280;76202;52.626;4.746;2024-03-23T03:39:25;100745.38;;;15.39;70.50
85758;BME280;76202;52.626;4.746;2024-03-23T03:41:51;100743.13;;;15.36;70.61
85758;BME280;76202;52.626;4.746;2024-03-23T03:44:16;100728.00;;;15.35;70.75
85758;BME280;76202;52.626;4.746;2024-03-23T03:46:42;100728.81;;;15.35;70.64
85758;BME280;76202;52.626;4.746;2024-03-23T03:49:08;100735.47;;;15.33;71.23
85758;BME280;76202;52.626;4.746;2024-03-23T03:51:33;100736.53;;;15.32;71.27
85758;BME280;76202;52.626;4.746;2024-03-23T03:53:59;100733.59;;;15.33;70.60
85758;BME280;76202;52.626;4.746;2024-03-23T03:56:24;100733.59;;;15.33;70.85
85758;BME280;76202;52.626;4.746;2024-03-23T03:58:49;100729.47;;;15.31;70.54
85758;BME280;76202;52.626;4.746;2024-03-23T04:01:15;100725.53;;;15.33;70.77
85758;BME280;76202;52.626;4.746;2024-03-23T04:03:40;100723.06;;;15.32;71.30
85758;BME280;76202;52.626;4.746;2024-03-23T04:06:09;100724.91;;;15.31;70.22
85758;BME280;76202;52.626;4.746;2024-03-23T04:08:34;100718.09;;;15.29;70.31
85758;BME280;76202;52.626;4.746;2024-03-23T04:11:00;100725.75;;;15.32;70.77
85758;BME280;76202;52.626;4.746;2024-03-23T04:13:25;100722.66;;;15.28;71.14
85758;BME280;76202;52.626;4.746;2024-03-23T04:15:56;100711.28;;;15.26;70.30
85758;BME280;76202;52.626;4.746;2024-03-23T04:18:22;100712.94;;;15.27;70.58
85758;BME280;76202;52.626;4.746;2024-03-23T04:20:51;100715.63;;;15.27;70.77
85758;BME280;76202;52.626;4.746;2024-03-23T04:23:17;100713.75;;;15.28;70.09
85758;BME280;76202;52.626;4.746;2024-03-23T04:25:45;100719.59;;;15.25;70.03
85758;BME280;76202;52.626;4.746;2024-03-23T04:28:10;100718.53;;;15.26;70.97
85758;BME280;76202;52.626;4.746;2024-03-23T04:30:35;100712.09;;;15.27;69.54
85758;BME280;76202;52.626;4.746;2024-03-23T04:33:02;100711.50;;;15.25;70.34
85758;BME280;76202;52.626;4.746;2024-03-23T04:35:27;100706.94;;;15.25;70.01
85758;BME280;76202;52.626;4.746;2024-03-23T04:37:53;100716.28;;;15.23;69.97
85758;BME280;76202;52.626;4.746;2024-03-23T04:40:18;100710.66;;;15.24;70.39
85758;BME280;76202;52.626;4.746;2024-03-23T04:42:44;100712.31;;;15.25;70.33
85758;BME280;76202;52.626;4.746;2024-03-23T04:45:09;100709.03;;;15.23;69.37
85758;BME280;76202;52.626;4.746;2024-03-23T04:47:36;100707.16;;;15.24;69.65
85758;BME280;76202;52.626;4.746;2024-03-23T04:50:02;100712.53;;;15.24;70.20
85758;BME280;76202;52.626;4.746;2024-03-23T04:52:29;100705.72;;;15.21;69.92
85758;BME280;76202;52.626;4.746;2024-03-23T04:54:55;100705.72;;;15.21;70.39
85758;BME280;76202;52.626;4.746;2024-03-23T04:57:20;100707.56;;;15.21;69.99
85758;BME280;76202;52.626;4.746;2024-03-23T04:59:45;100696.00;;;15.20;70.62
85758;BME280;76202;52.626;4.746;2024-03-23T05:02:12;100694.09;;;15.21;69.80
85758;BME280;76202;52.626;4.746;2024-03-23T05:04:38;100694.34;;;15.19;69.81
85758;BME280;76202;52.626;4.746;2024-03-23T05:07:03;100693.75;;;15.17;69.46
85758;BME280;76202;52.626;4.746;2024-03-23T05:09:29;100695.19;;;15.20;69.77
85758;BME280;76202;52.626;4.746;2024-03-23T05:11:56;100699.94;;;15.18;70.11
85758;BME280;76202;52.626;4.746;2024-03-23T05:14:21;100696.00;;;15.20;69.13
85758;BME280;76202;52.626;4.746;2024-03-23T05:16:47;100694.78;;;15.16;69.77
85758;BME280;76202;52.626;4.746;2024-03-23T05:19:12;100699.34;;;15.16;69.00
85758;BME280;76202;52.626;4.746;2024-03-23T05:21:37;100701.19;;;15.15;69.09
85758;BME280;76202;52.626;4.746;2024-03-23T05:24:03;100690.88;;;15.12;69.75
85758;BME280;76202;52.626;4.746;2024-03-23T05:26:28;100694.97;;;15.15;69.40
85758;BME280;76202;52.626;4.746;2024-03-23T05:28:54;100697.09;;;15.13;68.80
85758;BME280;76202;52.626;4.746;2024-03-23T05:31:24;100696.06;;;15.14;69.73
85758;BME280;76202;52.626;4.746;2024-03-23T05:33:49;100687.13;;;15.13;68.96
85758;BME280;76202;52.626;4.746;2024-03-23T05:36:16;100687.97;;;15.14;69.65
85758;BME280;76202;52.626;4.746;2024-03-23T05:38:42;100692.72;;;15.12;68.71
85758;BME280;76202;52.626;4.746;2024-03-23T05:41:08;100695.88;;;15.08;69.15
85758;BME280;76202;52.626;4.746;2024-03-23T05:43:33;100676.56;;;15.12;69.65
85758;BME280;76202;52.626;4.746;2024-03-23T05:45:59;100680.91;;;15.13;69.56
85758;BME280;76202;52.626;4.746;2024-03-23T05:48:28;100687.34;;;15.12;68.75
85758;BME280;76202;52.626;4.746;2024-03-23T05:50:55;100690.28;;;15.10;68.48
85758;BME280;76202;52.626;4.746;2024-03-23T05:53:20;100682.41;;;15.08;68.61
85758;BME280;76202;52.626;4.746;2024-03-23T05:55:46;100684.06;;;15.09;68.79
85758;BME280;76202;52.626;4.746;2024-03-23T05:58:14;100681.34;;;15.09;68.35
85758;BME280;76202;52.626;4.746;2024-03-23T06:00:40;100689.22;;;15.11;68.57
85758;BME280;76202;52.626;4.746;2024-03-23T06:03:06;100681.34;;;15.09;68.26
85758;BME280;76202;52.626;4.746;2024-03-23T06:05:31;100687.81;;;15.08;68.02
85758;BME280;76202;52.626;4.746;2024-03-23T06:07:56;100691.97;;;15.04;68.17
85758;BME280;76202;52.626;4.746;2024-03-23T06:10:22;100693.63;;;15.05;68.49
85758;BME280;76202;52.626;4.746;2024-03-23T06:12:48;100684.94;;;15.03;68.47
85758;BME280;76202;52.626;4.746;2024-03-23T06:15:14;100682.22;;;15.03;67.82
85758;BME280;76202;52.626;4.746;2024-03-23T06:17:39;100693.41;;;15.07;67.76
85758;BME280;76202;52.626;4.746;2024-03-23T06:20:05;100688.25;;;15.05;68.50
85758;BME280;76202;52.626;4.746;2024-03-23T06:22:35;100691.31;;;15.09;68.20
85758;BME280;76202;52.626;4.746;2024-03-23T06:25:00;100684.28;;;15.08;68.43
85758;BME280;76202;52.626;4.746;2024-03-23T06:27:26;100687.19;;;15.06;68.50
85758;BME280;76202;52.626;4.746;2024-03-23T06:29:51;100701.09;;;15.03;67.75
85758;BME280;76202;52.626;4.746;2024-03-23T06:32:17;100719.75;;;15.05;68.04
85758;BME280;76202;52.626;4.746;2024-03-23T06:34:43;100702.94;;;15.03;68.28
85758;BME280;76202;52.626;4.746;2024-03-23T06:37:09;100687.41;;;15.05;67.27
85758;BME280;76202;52.626;4.746;2024-03-23T06:39:37;100686.00;;;15.02;67.56
85758;BME280;76202;52.626;4.746;2024-03-23T06:42:03;100686.00;;;15.02;67.85
85758;BME280;76202;52.626;4.746;2024-03-23T06:44:28;100675.41;;;15.01;68.06
85758;BME280;76202;52.626;4.746;2024-03-23T06:46:55;100684.94;;;15.03;68.07
85758;BME280;76202;52.626;4.746;2024-03-23T06:49:21;100684.31;;;15.01;67.78
85758;BME280;76202;52.626;4.746;2024-03-23T06:51:46;100687.63;;;15.03;67.85
85758;BME280;76202;52.626;4.746;2024-03-23T06:54:12;100685.78;;;14.97;68.18
85758;BME280;76202;52.626;4.746;2024-03-23T06:56:37;100686.00;;;15.02;68.30
85758;BME280;76202;52.626;4.746;2024-03-23T06:59:02;100683.50;;;15.01;68.26
85758;BME280;76202;52.626;4.746;2024-03-23T07:01:28;100691.38;;;15.02;67.78
85758;BME280;76202;52.626;4.746;2024-03-23T07:03:56;100690.44;;;15.15;67.11
85758;BME280;76202;52.626;4.746;2024-03-23T07:06:21;100693.56;;;15.12;67.91
85758;BME280;76202;52.626;4.746;2024-03-23T07:08:47;100695.19;;;15.20;68.12
85758;BME280;76202;52.626;4.746;2024-03-23T07:11:18;100693.22;;;15.27;67.03
85758;BME280;76202;52.626;4.746;2024-03-23T07:13:43;100693.22;;;15.27;67.43
85758;BME280;76202;52.626;4.746;2024-03-23T07:16:09;100690.53;;;15.27;66.84
85758;BME280;76202;52.626;4.746;2024-03-23T07:18:34;100693.22;;;15.27;67.22
85758;BME280;76202;52.626;4.746;2024-03-23T07:21:00;100690.78;;;15.25;67.01
85758;BME280;76202;52.626;4.746;2024-03-23T07:23:25;100699.50;;;15.21;67.27
85758;BME280;76202;52.626;4.746;2024-03-23T07:25:57;100683.44;;;15.32;66.88
85758;BME280;76202;52.626;4.746;2024-03-23T07:28:22;100673.91;;;15.61;65.05
85758;BME280;76202;52.626;4.746;2024-03-23T07:30:48;100675.91;;;15.66;65.46
85758;BME280;76202;52.626;4.746;2024-03-23T07:33:13;100672.03;;;15.61;65.95
85758;BME280;76202;52.626;4.746;2024-03-23T07:35:38;100675.84;;;15.72;64.98
85758;BME280;76202;52.626;4.746;2024-03-23T07:38:04;100685.34;;;15.75;64.09
85758;BME280;76202;52.626;4.746;2024-03-23T07:40:30;100683.25;;;15.77;64.53
85758;BME280;76202;52.626;4.746;2024-03-23T07:42:56;100681.03;;;15.92;63.97
85758;BME280;76202;52.626;4.746;2024-03-23T07:45:21;100665.66;;;15.74;64.22
85758;BME280;76202;52.626;4.746;2024-03-23T07:47:47;100678.53;;;15.72;64.23
85758;BME280;76202;52.626;4.746;2024-03-23T07:50:12;100674.22;;;15.89;64.01
85758;BME280;76202;52.626;4.746;2024-03-23T07:52:38;100673.16;;;16.08;63.69
85758;BME280;76202;52.626;4.746;2024-03-23T07:55:03;100668.81;;;16.07;63.38
85758;BME280;76202;52.626;4.746;2024-03-23T07:57:29;100671.13;;;16.04;63.35
85758;BME280;76202;52.626;4.746;2024-03-23T07:59:54;100677.22;;;16.17;62.61
85758;BME280;76202;52.626;4.746;2024-03-23T08:02:19;100674.72;;;16.34;62.23
85758;BME280;76202;52.626;4.746;2024-03-23T08:04:45;100666.09;;;16.26;62.37
85758;BME280;76202;52.626;4.746;2024-03-23T08:07:12;100673.84;;;16.52;61.80
85758;BME280;76202;52.626;4.746;2024-03-23T08:09:38;100677.91;;;16.61;61.75
85758;BME280;76202;52.626;4.746;2024-03-23T08:12:03;100669.06;;;16.54;61.11
85758;BME280;76202;52.626;4.746;2024-03-23T08:14:29;100674.75;;;16.46;61.49
85758;BME280;76202;52.626;4.746;2024-03-23T08:16:54;100667.63;;;16.51;61.68
85758;BME280;76202;52.626;4.746;2024-03-23T08:19:20;100677.53;;;16.57;61.03
85758;BME280;76202;52.626;4.746;2024-03-23T08:21:46;100678.16;;;16.41;61.30
85758;BME280;76202;52.626;4.746;2024-03-23T08:24:11;100666.28;;;16.42;61.65
85758;BME280;76202;52.626;4.746;2024-03-23T08:26:36;100677.47;;;16.46;61.58
85758;BME280;76202;52.626;4.746;2024-03-23T08:29:03;100662.63;;;16.37;61.40
85758;BME280;76202;52.626;4.746;2024-03-23T08:31:28;100679.97;;;16.29;61.93
85758;BME280;76202;52.626;4.746;2024-03-23T08:33:53;100677.84;;;16.31;60.73
85758;BME280;76202;52.626;4.746;2024-03-23T08:36:19;100677.28;;;16.29;61.09
85758;BME280;76202;52.626;4.746;2024-03-23T08:38:44;100673.00;;;16.22;60.83
85758;BME280;76202;52.626;4.746;2024-03-23T08:41:10;100679.13;;;16.29;60.25
85758;BME280;76202;52.626;4.746;2024-03-23T08:43:38;100677.78;;;16.38;60.41
85758;BME280;76202;52.626;4.746;2024-03-23T08:46:08;100676.66;;;16.27;60.03
85758;BME280;76202;52.626;4.746;2024-03-23T08:48:35;100672.47;;;16.13;60.14
85758;BME280;76202;52.626;4.746;2024-03-23T08:53:28;100670.47;;;16.27;59.78
85758;BME280;76202;52.626;4.746;2024-03-23T08:55:55;100663.78;;;16.29;59.28
85758;BME280;76202;52.626;4.746;2024-03-23T08:58:20;100674.47;;;16.36;59.95
85758;BME280;76202;52.626;4.746;2024-03-23T09:00:46;100667.91;;;16.32;59.06
85758;BME280;76202;52.626;4.746;2024-03-23T09:03:12;100665.97;;;16.21;59.34
85758;BME280;76202;52.626;4.746;2024-03-23T09:05:40;100671.38;;;16.21;59.96
85758;BME280;76202;52.626;4.746;2024-03-23T09:08:06;100675.63;;;16.28;59.82
85758;BME280;76202;52.626;4.746;2024-03-23T09:10:34;100677.31;;;16.41;59.01
85758;BME280;76202;52.626;4.746;2024-03-23T09:13:00;100667.56;;;16.40;58.89
85758;BME280;76202;52.626;4.746;2024-03-23T09:15:25;100664.94;;;16.33;58.85
85758;BME280;76202;52.626;4.746;2024-03-23T09:17:50;100664.88;;;16.40;58.48
85758;BME280;76202;52.626;4.746;2024-03-23T09:20:17;100658.59;;;16.28;59.12
85758;BME280;76202;52.626;4.746;2024-03-23T09:22:43;100669.97;;;16.30;58.58
85758;BME280;76202;52.626;4.746;2024-03-23T09:25:08;100662.56;;;16.25;58.50
85758;BME280;76202;52.626;4.746;2024-03-23T09:27:34;100671.66;;;16.12;59.92
85758;BME280;76202;52.626;4.746;2024-03-23T09:29:59;100659.75;;;16.20;59.56
85758;BME280;76202;52.626;4.746;2024-03-23T09:32:25;100669.13;;;16.17;59.21
85758;BME280;76202;52.626;4.746;2024-03-23T09:34:50;100662.88;;;16.17;59.47
85758;BME280;76202;52.626;4.746;2024-03-23T09:37:15;100671.50;;;16.07;59.17
85758;BME280;76202;52.626;4.746;2024-03-23T09:39:41;100671.31;;;16.09;59.72
85758;BME280;76202;52.626;4.746;2024-03-23T09:42:07;100658.13;;;16.31;58.71
85758;BME280;76202;52.626;4.746;2024-03-23T09:44:32;100658.50;;;16.34;58.51
85758;BME280;76202;52.626;4.746;2024-03-23T09:47:01;100662.19;;;16.22;58.59
85758;BME280;76202;52.626;4.746;2024-03-23T09:49:28;100674.97;;;16.14;58.29
85758;BME280;76202;52.626;4.746;2024-03-23T09:51:53;100665.72;;;16.04;59.07
85758;BME280;76202;52.626;4.746;2024-03-23T09:54:24;100671.88;;;16.11;58.75
85758;BME280;76202;52.626;4.746;2024-03-23T09:56:49;100663.63;;;16.24;58.42
85758;BME280;76202;52.626;4.746;2024-03-23T09:59:15;100675.91;;;16.38;57.38
85758;BME280;76202;52.626;4.746;2024-03-23T10:01:40;100669.91;;;16.36;57.30
85758;BME280;76202;52.626;4.746;2024-03-23T10:04:06;100674.13;;;16.32;57.43
85758;BME280;76202;52.626;4.746;2024-03-23T10:06:34;100654.25;;;16.27;57.68
85758;BME280;76202;52.626;4.746;2024-03-23T10:09:00;100654.56;;;16.18;56.88
85758;BME280;76202;52.626;4.746;2024-03-23T10:11:25;100672.03;;;16.16;57.21
85758;BME280;76202;52.626;4.746;2024-03-23T10:13:52;100671.88;;;16.11;57.69
85758;BME280;76202;52.626;4.746;2024-03-23T10:16:22;100669.31;;;16.16;58.01
85758;BME280;76202;52.626;4.746;2024-03-23T10:18:50;100668.94;;;16.31;56.85
85758;BME280;76202;52.626;4.746;2024-03-23T10:21:16;100658.72;;;16.33;56.36
85758;BME280;76202;52.626;4.746;2024-03-23T10:23:42;100661.16;;;16.23;56.62
85758;BME280;76202;52.626;4.746;2024-03-23T10:26:18;100678.47;;;16.15;57.88
85758;BME280;76202;52.626;4.746;2024-03-23T10:31:20;100666.34;;;16.06;57.67
85758;BME280;76202;52.626;4.746;2024-03-23T10:33:49;100676.31;;;16.05;57.29
85758;BME280;76202;52.626;4.746;2024-03-23T10:36:15;100669.06;;;16.06;57.22
85758;BME280;76202;52.626;4.746;2024-03-23T10:38:42;100676.69;;;16.09;57.76
85758;BME280;76202;52.626;4.746;2024-03-23T10:41:09;100658.25;;;16.06;57.21
85758;BME280;76202;52.626;4.746;2024-03-23T10:43:38;100664.69;;;16.05;57.55
85758;BME280;76202;52.626;4.746;2024-03-23T10:46:04;100668.22;;;16.05;57.20
85758;BME280;76202;52.626;4.746;2024-03-23T10:48:31;100663.88;;;16.04;56.56
85758;BME280;76202;52.626;4.746;2024-03-23T10:50:57;100662.38;;;16.08;56.78
85758;BME280;76202;52.626;4.746;2024-03-23T10:53:25;100668.50;;;16.15;56.85
85758;BME280;76202;52.626;4.746;2024-03-23T10:55:51;100669.84;;;16.06;56.38
85758;BME280;76202;52.626;4.746;2024-03-23T10:58:19;100662.91;;;15.99;57.31
85758;BME280;76202;52.626;4.746;2024-03-23T11:00:47;100651.34;;;15.92;57.52
85758;BME280;76202;52.626;4.746;2024-03-23T11:03:35;100656.53;;;15.93;57.59
85758;BME280;76202;52.626;4.746;2024-03-23T11:06:03;100654.22;;;15.97;57.25
85758;BME280;76202;52.626;4.746;2024-03-23T11:08:36;100669.25;;;15.86;57.54
85758;BME280;76202;52.626;4.746;2024-03-23T11:11:21;100657.94;;;15.78;57.27
85758;BME280;76202;52.626;4.746;2024-03-23T11:13:49;100652.09;;;15.81;57.54
85758;BME280;76202;52.626;4.746;2024-03-23T11:16:16;100670.78;;;15.82;56.77
85758;BME280;76202;52.626;4.746;2024-03-23T11:18:43;100643.50;;;15.90;56.88
85758;BME280;76202;52.626;4.746;2024-03-23T11:21:09;100650.31;;;15.93;56.47
85758;BME280;76202;52.626;4.746;2024-03-23T11:23:34;100647.63;;;15.93;57.07
85758;BME280;76202;52.626;4.746;2024-03-23T11:26:00;100655.47;;;15.94;56.33
85758;BME280;76202;52.626;4.746;2024-03-23T11:28:26;100655.13;;;15.91;56.56
85758;BME280;76202;52.626;4.746;2024-03-23T11:30:51;100651.59;;;15.90;56.22
85758;BME280;76202;52.626;4.746;2024-03-23T11:33:17;100636.50;;;16.01;56.34
85758;BME280;76202;52.626;4.746;2024-03-23T11:35:42;100639.22;;;16.01;56.01
85758;BME280;76202;52.626;4.746;2024-03-23T11:38:11;100648.66;;;15.92;55.80
85758;BME280;76202;52.626;4.746;2024-03-23T11:40:41;100648.13;;;15.83;56.78
85758;BME280;76202;52.626;4.746;2024-03-23T11:43:08;100641.78;;;15.78;56.48
85758;BME280;76202;52.626;4.746;2024-03-23T11:45:39;100635.94;;;15.81;56.62
85758;BME280;76202;52.626;4.746;2024-03-23T11:48:09;100636.31;;;15.84;56.56
85758;BME280;76202;52.626;4.746;2024-03-23T11:50:43;100650.38;;;15.86;55.95
85758;BME280;76202;52.626;4.746;2024-03-23T11:53:15;100641.47;;;15.86;56.47
85758;BME280;76202;52.626;4.746;2024-03-23T11:55:49;100646.50;;;15.82;56.43
85758;BME280;76202;52.626;4.746;2024-03-23T11:58:16;100638.88;;;15.79;56.53
85758;BME280;76202;52.626;4.746;2024-03-23T12:00:42;100625.06;;;15.87;55.95
85758;BME280;76202;52.626;4.746;2024-03-23T12:03:13;100627.75;;;15.87;55.74
85758;BME280;76202;52.626;4.746;2024-03-23T12:05:39;100634.06;;;15.81;55.57
85758;BME280;76202;52.626;4.746;2024-03-23T12:08:18;100618.78;;;15.75;55.35
85758;BME280;76202;52.626;4.746;2024-03-23T12:10:51;100624.81;;;15.71;55.89
85758;BME280;76202;52.626;4.746;2024-03-23T12:13:18;100618.41;;;15.72;56.06
85758;BME280;76202;52.626;4.746;2024-03-23T12:15:45;100622.50;;;15.74;55.83
85758;BME280;76202;52.626;4.746;2024-03-23T12:18:11;100643.69;;;15.71;55.69
85758;BME280;76202;52.626;4.746;2024-03-23T12:20:38;100634.28;;;15.61;55.97
85758;BME280;76202;52.626;4.746;2024-03-23T12:23:07;100623.84;;;15.65;55.98
85758;BME280;76202;52.626;4.746;2024-03-23T12:25:35;100633.00;;;15.64;55.24
85758;BME280;76202;52.626;4.746;2024-03-23T12:28:01;100618.91;;;15.62;55.51
85758;BME280;76202;52.626;4.746;2024-03-23T12:30:27;100622.69;;;15.61;55.46
85758;BME280;76202;52.626;4.746;2024-03-23T12:32:52;100614.06;;;15.52;56.95
85758;BME280;76202;52.626;4.746;2024-03-23T12:35:18;100614.09;;;15.46;56.26
85758;BME280;76202;52.626;4.746;2024-03-23T12:37:43;100612.53;;;15.56;55.54
85758;BME280;76202;52.626;4.746;2024-03-23T12:40:09;100602.84;;;15.55;56.11
85758;BME280;76202;52.626;4.746;2024-03-23T12:42:35;100604.84;;;15.60;56.16
85758;BME280;76202;52.626;4.746;2024-03-23T12:45:00;100605.59;;;15.67;55.90
85758;BME280;76202;52.626;4.746;2024-03-23T12:47:26;100602.47;;;15.70;56.12
85758;BME280;76202;52.626;4.746;2024-03-23T12:49:52;100605.16;;;15.70;55.48
85758;BME280;76202;52.626;4.746;2024-03-23T12:52:17;100601.69;;;15.63;56.41
85758;BME280;76202;52.626;4.746;2024-03-23T12:54:42;100595.53;;;15.56;56.37
85758;BME280;76202;52.626;4.746;2024-03-23T12:57:09;100604.56;;;15.50;55.97
85758;BME280;76202;52.626;4.746;2024-03-23T12:59:34;100614.50;;;15.49;56.80
85758;BME280;76202;52.626;4.746;2024-03-23T13:02:01;100598.75;;;15.46;56.24
85758;BME280;76202;52.626;4.746;2024-03-23T13:04:26;100598.94;;;15.51;56.02
85758;BME280;76202;52.626;4.746;2024-03-23T13:06:51;100597.19;;;15.57;55.45
85758;BME280;76202;52.626;4.746;2024-03-23T13:09:17;100585.59;;;15.56;56.09
85758;BME280;76202;52.626;4.746;2024-03-23T13:11:42;100594.13;;;15.53;55.88
85758;BME280;76202;52.626;4.746;2024-03-23T13:14:07;100584.19;;;15.54;55.85
85758;BME280;76202;52.626;4.746;2024-03-23T13:16:33;100581.16;;;15.62;55.65
85758;BME280;76202;52.626;4.746;2024-03-23T13:19:00;100594.66;;;15.62;54.87
85758;BME280;76202;52.626;4.746;2024-03-23T13:21:26;100588.22;;;15.63;55.39
85758;BME280;76202;52.626;4.746;2024-03-23T13:23:52;100562.91;;;15.64;54.89
85758;BME280;76202;52.626;4.746;2024-03-23T13:26:17;100572.34;;;15.55;55.27
85758;BME280;76202;52.626;4.746;2024-03-23T13:28:42;100575.94;;;15.49;55.21
85758;BME280;76202;52.626;4.746;2024-03-23T13:31:08;100572.81;;;15.52;55.59
85758;BME280;76202;52.626;4.746;2024-03-23T13:33:34;100573.84;;;15.51;55.19
85758;BME280;76202;52.626;4.746;2024-03-23T13:35:59;100569.28;;;15.51;54.95
85758;BME280;76202;52.626;4.746;2024-03-23T13:38:25;100579.22;;;15.51;55.83
85758;BME280;76202;52.626;4.746;2024-03-23T13:40:55;100581.53;;;15.47;55.31
85758;BME280;76202;52.626;4.746;2024-03-23T13:43:24;100561.47;;;15.43;55.37
85758;BME280;76202;52.626;4.746;2024-03-23T13:45:55;100556.06;;;15.43;54.89